createdAt,value
2017-10-13T00:01:41.922Z,11.70
2017-10-13T00:04:08.379Z,11.70
2017-10-13T00:06:34.834Z,11.70
2017-10-13T00:09:01.204Z,11.70
2017-10-13T00:11:27.758Z,11.80
2017-10-13T00:13:54.280Z,11.70
2017-10-13T00:16:20.714Z,11.70
2017-10-13T00:18:47.076Z,11.70
2017-10-13T00:21:13.428Z,11.70
2017-10-13T00:23:40.569Z,11.70
2017-10-13T00:26:06.940Z,11.70
2017-10-13T00:28:33.284Z,11.70
2017-10-13T00:30:59.653Z,11.70
2017-10-13T00:33:25.986Z,11.70
2017-10-13T00:35:52.339Z,11.70
2017-10-13T00:38:19.391Z,11.80
2017-10-13T00:40:46.519Z,11.70
2017-10-13T00:43:12.943Z,11.80
2017-10-13T00:45:39.453Z,11.80
2017-10-13T00:48:05.841Z,11.70
2017-10-13T00:50:33.141Z,11.70
2017-10-13T00:52:59.560Z,11.70
2017-10-13T00:55:25.948Z,11.70
2017-10-13T00:57:53.155Z,11.70
2017-10-13T01:00:19.502Z,11.70
2017-10-13T01:02:45.899Z,11.70
2017-10-13T01:05:12.270Z,11.70
2017-10-13T01:07:38.734Z,11.70
2017-10-13T01:10:05.138Z,11.60
2017-10-13T01:12:31.554Z,11.60
2017-10-13T01:14:58.036Z,11.50
2017-10-13T01:17:24.451Z,11.50
2017-10-13T01:19:50.931Z,11.50
2017-10-13T01:22:17.400Z,11.50
2017-10-13T01:24:43.796Z,11.40
2017-10-13T01:27:10.144Z,11.40
2017-10-13T01:29:36.545Z,11.40
2017-10-13T01:32:03.672Z,11.30
2017-10-13T01:34:30.071Z,11.30
2017-10-13T01:36:56.447Z,11.30
2017-10-13T01:39:22.785Z,11.30
2017-10-13T01:41:49.178Z,11.30
2017-10-13T01:44:15.598Z,11.30
2017-10-13T01:46:41.937Z,11.40
2017-10-13T01:49:08.381Z,11.40
2017-10-13T01:51:34.812Z,11.40
2017-10-13T01:54:01.197Z,11.40
2017-10-13T01:56:27.575Z,11.40
2017-10-13T01:58:54.089Z,11.40
2017-10-13T02:01:20.548Z,11.40
2017-10-13T02:03:46.878Z,11.50
2017-10-13T02:06:13.274Z,11.50
2017-10-13T02:08:39.784Z,11.50
2017-10-13T02:11:06.868Z,11.40
2017-10-13T02:13:33.216Z,11.40
2017-10-13T02:15:59.578Z,11.50
2017-10-13T02:18:25.926Z,11.60
2017-10-13T02:20:52.264Z,11.70
2017-10-13T02:23:19.461Z,11.70
2017-10-13T02:25:45.894Z,11.60
2017-10-13T02:28:12.329Z,11.70
2017-10-13T02:30:38.747Z,11.70
2017-10-13T02:33:05.161Z,11.70
2017-10-13T02:35:31.558Z,11.60
2017-10-13T02:37:57.972Z,11.60
2017-10-13T02:40:24.501Z,11.50
2017-10-13T02:42:50.896Z,11.60
2017-10-13T02:45:18.105Z,11.50
2017-10-13T02:47:44.552Z,11.50
2017-10-13T02:50:10.881Z,11.50
2017-10-13T02:52:37.420Z,11.50
2017-10-13T02:55:03.793Z,11.50
2017-10-13T02:57:30.253Z,11.50
2017-10-13T02:59:56.612Z,11.50
2017-10-13T03:02:23.116Z,11.50
2017-10-13T03:04:49.689Z,11.50
2017-10-13T03:07:16.428Z,11.40
2017-10-13T03:09:42.834Z,11.40
2017-10-13T03:12:09.208Z,11.30
2017-10-13T03:14:36.361Z,11.20
2017-10-13T03:17:03.592Z,11.10
2017-10-13T03:19:30.157Z,11.10
2017-10-13T03:21:56.568Z,11.00
2017-10-13T03:24:23.022Z,11.10
2017-10-13T03:26:50.123Z,11.10
2017-10-13T03:29:16.505Z,11.00
2017-10-13T03:31:43.589Z,11.20
2017-10-13T03:34:09.945Z,11.20
2017-10-13T03:36:37.381Z,11.20
2017-10-13T03:39:03.803Z,11.30
2017-10-13T03:41:30.210Z,11.40
2017-10-13T03:43:56.663Z,11.50
2017-10-13T03:46:23.145Z,11.60
2017-10-13T03:48:49.497Z,11.70
2017-10-13T03:51:15.897Z,11.80
2017-10-13T03:53:42.277Z,12.00
2017-10-13T03:56:10.217Z,12.10
2017-10-13T03:58:36.600Z,12.10
2017-10-13T04:01:02.988Z,12.20
2017-10-13T04:03:29.396Z,12.30
2017-10-13T04:05:55.914Z,12.30
2017-10-13T04:08:22.304Z,12.40
2017-10-13T04:10:49.493Z,12.50
2017-10-13T04:13:15.899Z,12.50
2017-10-13T04:15:42.301Z,12.50
2017-10-13T04:18:08.924Z,12.50
2017-10-13T04:20:35.376Z,12.60
2017-10-13T04:23:01.835Z,12.60
2017-10-13T04:25:29.013Z,12.70
2017-10-13T04:27:55.391Z,12.70
2017-10-13T04:30:21.778Z,12.70
2017-10-13T04:32:48.146Z,12.70
2017-10-13T04:35:14.509Z,12.70
2017-10-13T04:37:41.641Z,12.80
2017-10-13T04:40:08.036Z,12.70
2017-10-13T04:42:34.410Z,12.70
2017-10-13T04:45:00.827Z,12.70
2017-10-13T04:47:27.164Z,12.70
2017-10-13T04:49:53.504Z,12.80
2017-10-13T04:52:19.896Z,12.80
2017-10-13T04:54:46.275Z,12.80
2017-10-13T04:57:12.715Z,12.80
2017-10-13T04:59:39.268Z,12.80
2017-10-13T05:02:05.707Z,12.90
2017-10-13T05:04:32.101Z,12.90
2017-10-13T05:06:59.322Z,13.00
2017-10-13T05:09:25.779Z,12.90
2017-10-13T05:11:52.176Z,12.90
2017-10-13T05:14:18.624Z,12.90
2017-10-13T05:16:44.948Z,13.00
2017-10-13T05:19:11.273Z,13.00
2017-10-13T05:21:37.699Z,13.00
2017-10-13T05:24:04.039Z,13.00
2017-10-13T05:26:30.458Z,13.00
2017-10-13T05:28:56.842Z,13.00
2017-10-13T05:31:23.228Z,13.00
2017-10-13T05:33:49.557Z,13.10
2017-10-13T05:36:15.859Z,13.10
2017-10-13T05:38:42.890Z,13.00
2017-10-13T05:41:09.217Z,13.00
2017-10-13T05:43:35.514Z,13.10
2017-10-13T05:46:01.838Z,13.10
2017-10-13T05:48:28.213Z,13.00
2017-10-13T05:50:54.709Z,13.10
2017-10-13T05:53:21.107Z,13.00
2017-10-13T05:55:48.422Z,13.10
2017-10-13T05:58:14.924Z,13.10
2017-10-13T06:00:41.310Z,13.10
2017-10-13T06:03:07.588Z,13.10
2017-10-13T06:05:34.024Z,13.10
2017-10-13T06:08:00.392Z,13.10
2017-10-13T06:10:27.049Z,13.30
2017-10-13T06:12:53.484Z,13.30
2017-10-13T06:15:19.892Z,13.30
2017-10-13T06:17:46.285Z,13.40
2017-10-13T06:20:12.655Z,13.40
2017-10-13T06:22:39.007Z,13.40
2017-10-13T06:25:06.145Z,13.40
2017-10-13T06:27:32.487Z,13.30
2017-10-13T06:29:58.858Z,13.40
2017-10-13T06:32:25.289Z,13.40
2017-10-13T06:34:51.641Z,13.40
2017-10-13T06:37:17.985Z,13.40
2017-10-13T06:39:44.365Z,13.50
2017-10-13T06:42:11.488Z,13.50
2017-10-13T06:44:38.001Z,13.50
2017-10-13T06:47:04.408Z,13.50
2017-10-13T06:49:30.834Z,13.70
2017-10-13T06:51:57.276Z,13.70
2017-10-13T06:54:24.596Z,13.60
2017-10-13T06:56:51.696Z,13.60
2017-10-13T06:59:18.064Z,13.60
2017-10-13T07:01:45.250Z,13.60
2017-10-13T07:04:12.352Z,13.70
2017-10-13T07:06:38.728Z,13.70
2017-10-13T07:09:05.845Z,13.80
2017-10-13T07:11:32.333Z,13.80
2017-10-13T07:13:59.598Z,13.90
2017-10-13T07:16:25.932Z,14.00
2017-10-13T07:18:52.303Z,14.00
2017-10-13T07:21:18.664Z,13.90
2017-10-13T07:23:45.771Z,14.10
2017-10-13T07:26:12.146Z,14.10
2017-10-13T07:28:39.287Z,14.40
2017-10-13T07:31:06.416Z,14.50
2017-10-13T07:33:32.798Z,14.50
2017-10-13T07:35:59.174Z,14.60
2017-10-13T07:38:25.488Z,14.60
2017-10-13T07:40:51.925Z,14.70
2017-10-13T07:43:18.303Z,14.70
2017-10-13T07:45:45.460Z,14.60
2017-10-13T07:48:11.778Z,14.60
2017-10-13T07:50:38.831Z,14.70
2017-10-13T07:53:05.930Z,14.80
2017-10-13T07:55:32.298Z,14.80
2017-10-13T07:57:58.663Z,15.00
2017-10-13T08:00:25.007Z,14.90
2017-10-13T08:02:51.366Z,15.20
2017-10-13T08:05:17.890Z,15.30
2017-10-13T08:07:44.959Z,15.50
2017-10-13T08:10:11.308Z,15.40
2017-10-13T08:12:37.700Z,15.30
2017-10-13T08:15:04.018Z,15.40
2017-10-13T08:17:30.379Z,15.50
2017-10-13T08:19:56.814Z,15.80
2017-10-13T08:22:23.367Z,15.80
2017-10-13T08:24:50.013Z,15.80
2017-10-13T08:27:17.106Z,16.20
2017-10-13T08:29:43.446Z,16.10
2017-10-13T08:32:09.831Z,16.10
2017-10-13T08:34:36.930Z,16.20
2017-10-13T08:37:03.309Z,16.20
2017-10-13T08:39:30.489Z,16.50
2017-10-13T08:41:56.923Z,16.50
2017-10-13T08:44:23.335Z,16.60
2017-10-13T08:46:50.466Z,16.70
2017-10-13T08:49:16.892Z,16.70
2017-10-13T08:51:43.221Z,16.80
2017-10-13T08:54:09.538Z,17.00
2017-10-13T08:56:35.879Z,17.10
2017-10-13T08:59:02.227Z,17.00
2017-10-13T09:01:28.644Z,17.10
2017-10-13T09:03:55.060Z,17.20
2017-10-13T09:06:21.397Z,17.60
2017-10-13T09:08:47.856Z,17.70
2017-10-13T09:11:14.222Z,17.80
2017-10-13T09:13:40.660Z,17.90
2017-10-13T09:16:07.025Z,17.50
2017-10-13T09:18:33.484Z,17.30
2017-10-13T09:20:59.840Z,17.50
2017-10-13T09:23:26.905Z,17.50
2017-10-13T09:25:53.608Z,17.50
2017-10-13T09:28:19.968Z,17.30
2017-10-13T09:30:46.388Z,17.50
2017-10-13T09:33:13.532Z,17.40
2017-10-13T09:35:39.906Z,17.40
2017-10-13T09:38:06.249Z,17.20
2017-10-13T09:40:32.580Z,17.40
2017-10-13T09:42:58.917Z,17.20
2017-10-13T09:45:25.243Z,17.20
2017-10-13T09:47:51.610Z,17.30
2017-10-13T09:50:18.056Z,17.10
2017-10-13T09:52:44.419Z,17.30
2017-10-13T09:55:10.825Z,17.50
2017-10-13T09:57:37.166Z,17.50
2017-10-13T10:00:04.254Z,17.40
2017-10-13T10:02:30.628Z,17.40
2017-10-13T10:04:57.058Z,17.50
2017-10-13T10:07:23.547Z,17.70
2017-10-13T10:09:49.888Z,17.70
2017-10-13T10:12:16.198Z,18.40
2017-10-13T10:14:42.690Z,18.60
2017-10-13T10:17:09.062Z,19.20
2017-10-13T10:19:35.442Z,19.40
2017-10-13T10:22:01.816Z,19.30
2017-10-13T10:24:28.241Z,19.10
2017-10-13T10:26:55.384Z,18.80
2017-10-13T10:31:55.706Z,18.50
2017-10-13T10:34:22.041Z,18.60
2017-10-13T10:36:48.361Z,18.50
2017-10-13T10:39:14.671Z,18.40
2017-10-13T10:41:40.958Z,18.10
2017-10-13T10:44:08.040Z,18.30
2017-10-13T10:46:34.365Z,18.20
2017-10-13T10:49:00.694Z,18.50
2017-10-13T10:51:27.031Z,18.10
2017-10-13T10:53:53.410Z,18.00
2017-10-13T10:56:19.815Z,18.10
2017-10-13T10:58:46.085Z,18.20
2017-10-13T11:01:12.397Z,18.50
2017-10-13T11:03:38.757Z,18.20
2017-10-13T11:06:05.783Z,18.90
2017-10-13T11:08:32.166Z,18.90
2017-10-13T11:10:58.501Z,19.40
2017-10-13T11:13:24.875Z,20.00
2017-10-13T11:15:51.200Z,20.10
2017-10-13T11:18:17.535Z,20.90
2017-10-13T11:20:43.845Z,20.30
2017-10-13T11:23:10.190Z,20.80
2017-10-13T11:25:36.534Z,22.10
2017-10-13T11:28:02.864Z,24.00
2017-10-13T11:30:29.176Z,24.50
2017-10-13T11:32:55.478Z,23.30
2017-10-13T11:35:21.829Z,22.50
2017-10-13T11:37:48.253Z,21.50
2017-10-13T11:40:14.544Z,20.70
2017-10-13T11:42:41.614Z,21.00
2017-10-13T11:45:08.032Z,21.00
2017-10-13T11:47:35.132Z,20.10
2017-10-13T11:50:01.448Z,20.10
2017-10-13T11:52:29.607Z,19.40
2017-10-13T11:54:56.111Z,19.30
2017-10-13T11:57:23.166Z,19.70
2017-10-13T11:59:50.289Z,20.90
2017-10-13T12:02:16.642Z,20.80
2017-10-13T12:04:43.772Z,21.50
2017-10-13T12:07:10.170Z,21.40
2017-10-13T12:09:36.540Z,20.60
2017-10-13T12:12:03.452Z,19.50
2017-10-13T12:14:29.812Z,19.00
2017-10-13T12:16:56.174Z,19.70
2017-10-13T12:19:23.300Z,21.00
2017-10-13T12:22:02.171Z,21.00
2017-10-13T12:24:28.456Z,21.00
2017-10-13T12:26:54.826Z,21.30
2017-10-13T12:29:21.258Z,22.20
2017-10-13T12:31:47.652Z,23.00
2017-10-13T12:34:14.026Z,23.10
2017-10-13T12:36:40.545Z,24.90
2017-10-13T12:39:06.906Z,25.30
2017-10-13T12:41:33.238Z,24.30
2017-10-13T12:43:59.596Z,23.70
2017-10-13T12:46:25.995Z,22.30
2017-10-13T12:48:52.344Z,23.30
2017-10-13T12:51:18.768Z,23.70
2017-10-13T12:53:45.193Z,22.10
2017-10-13T12:56:11.543Z,21.20
2017-10-13T12:58:37.937Z,19.60
2017-10-13T13:01:04.248Z,19.50
2017-10-13T13:03:31.413Z,21.90
2017-10-13T13:05:58.541Z,23.40
2017-10-13T13:08:24.944Z,23.30
2017-10-13T13:10:51.304Z,24.40
2017-10-13T13:13:17.914Z,24.20
2017-10-13T13:15:44.275Z,22.80
2017-10-13T13:18:11.376Z,22.40
2017-10-13T13:20:37.970Z,22.40
2017-10-13T13:23:05.215Z,23.60
2017-10-13T13:25:32.297Z,24.60
2017-10-13T13:27:59.443Z,25.50
2017-10-13T13:30:27.411Z,25.30
2017-10-13T13:32:53.785Z,25.30
2017-10-13T13:35:20.472Z,25.30
2017-10-13T13:37:46.857Z,24.10
2017-10-13T13:40:13.531Z,23.20
2017-10-13T13:42:39.895Z,22.90
2017-10-13T13:45:07.026Z,23.20
2017-10-13T13:47:34.364Z,22.40
2017-10-13T13:50:00.977Z,22.30
2017-10-13T13:52:27.670Z,21.40
2017-10-13T13:54:54.047Z,21.10
2017-10-13T13:57:20.490Z,20.00
2017-10-13T13:59:46.865Z,19.90
2017-10-13T14:02:14.007Z,19.90
2017-10-13T14:04:40.437Z,19.80
2017-10-13T14:07:06.867Z,21.00
2017-10-13T14:09:33.199Z,21.20
2017-10-13T14:11:59.586Z,20.60
2017-10-13T14:14:26.018Z,20.00
2017-10-13T14:16:52.431Z,20.80
2017-10-13T14:19:18.826Z,20.60
2017-10-13T14:21:45.965Z,19.60
2017-10-13T14:24:12.372Z,19.60
2017-10-13T14:26:38.803Z,19.60
2017-10-13T14:29:05.133Z,19.30
2017-10-13T14:31:31.601Z,19.10
2017-10-13T14:33:57.940Z,19.40
2017-10-13T14:36:24.239Z,20.10
2017-10-13T14:38:50.596Z,20.40
2017-10-13T14:41:16.909Z,20.80
2017-10-13T14:43:43.237Z,21.70
2017-10-13T14:46:09.529Z,23.30
2017-10-13T14:48:35.869Z,24.00
2017-10-13T14:51:02.174Z,24.10
2017-10-13T14:53:29.261Z,26.40
2017-10-13T14:55:55.581Z,26.30
2017-10-13T14:58:22.790Z,26.50
2017-10-13T15:00:49.158Z,25.60
2017-10-13T15:03:15.471Z,25.30
2017-10-13T15:05:42.479Z,23.00
2017-10-13T15:08:08.827Z,22.90
2017-10-13T15:10:35.088Z,21.60
2017-10-13T15:13:01.476Z,20.80
2017-10-13T15:15:27.744Z,20.60
2017-10-13T15:17:54.784Z,19.90
2017-10-13T15:20:21.870Z,19.80
2017-10-13T15:22:48.176Z,19.80
2017-10-13T15:25:21.232Z,19.00
2017-10-13T15:27:53.738Z,19.00
2017-10-13T15:30:26.938Z,18.50
2017-10-13T15:32:59.405Z,18.50
2017-10-13T15:35:32.567Z,18.30
2017-10-13T15:38:05.236Z,18.20
2017-10-13T15:40:37.802Z,18.10
2017-10-13T15:43:10.269Z,18.10
2017-10-13T15:45:42.720Z,18.00
2017-10-13T15:48:15.252Z,17.80
2017-10-13T15:50:47.647Z,17.70
2017-10-13T15:53:14.727Z,17.10
2017-10-13T15:55:41.078Z,17.10
2017-10-13T15:58:07.372Z,16.90
2017-10-13T16:00:33.742Z,16.80
2017-10-13T16:03:00.092Z,16.60
2017-10-13T16:05:26.432Z,16.50
2017-10-13T16:07:52.682Z,16.30
2017-10-13T16:10:19.746Z,16.10
2017-10-13T16:12:46.066Z,16.10
2017-10-13T16:15:13.226Z,15.90
2017-10-13T16:17:39.661Z,15.90
2017-10-13T16:20:05.982Z,15.80
2017-10-13T16:22:33.047Z,15.70
2017-10-13T16:24:59.394Z,15.80
2017-10-13T16:27:25.705Z,15.70
2017-10-13T16:29:52.099Z,15.60
2017-10-13T16:32:18.395Z,15.60
2017-10-13T16:34:44.679Z,15.50
2017-10-13T16:37:11.816Z,15.30
2017-10-13T16:39:38.117Z,15.20
2017-10-13T16:42:04.519Z,15.10
2017-10-13T16:44:30.837Z,15.10
2017-10-13T16:46:57.149Z,15.10
2017-10-13T16:49:23.479Z,15.00
2017-10-13T16:51:49.896Z,15.00
2017-10-13T16:54:16.229Z,14.90
2017-10-13T16:56:42.634Z,14.90
2017-10-13T16:59:09.663Z,14.70
2017-10-13T17:01:35.967Z,14.70
2017-10-13T17:04:03.000Z,14.60
2017-10-13T17:06:29.292Z,14.60
2017-10-13T17:08:55.577Z,14.50
2017-10-13T17:11:22.676Z,14.50
2017-10-13T17:13:49.176Z,14.40
2017-10-13T17:16:15.483Z,14.30
2017-10-13T17:18:42.568Z,14.30
2017-10-13T17:21:08.911Z,14.20
2017-10-13T17:23:35.178Z,14.20
2017-10-13T17:26:01.457Z,14.10
2017-10-13T17:28:27.804Z,14.10
2017-10-13T17:30:54.094Z,14.10
2017-10-13T17:33:21.154Z,14.00
2017-10-13T17:35:47.658Z,14.00
2017-10-13T17:38:13.969Z,14.00
2017-10-13T17:40:40.248Z,13.90
2017-10-13T17:43:06.567Z,13.90
2017-10-13T17:45:33.666Z,13.80
2017-10-13T17:47:59.933Z,13.80
2017-10-13T17:50:26.993Z,13.70
2017-10-13T17:52:54.075Z,13.70
2017-10-13T17:55:20.412Z,13.60
2017-10-13T17:57:46.750Z,13.60
2017-10-13T18:00:13.054Z,13.60
2017-10-13T18:02:39.428Z,13.60
2017-10-13T18:05:05.856Z,13.60
2017-10-13T18:07:33.234Z,13.60
2017-10-13T18:10:00.297Z,13.50
2017-10-13T18:12:27.382Z,13.60
2017-10-13T18:14:53.656Z,13.50
2017-10-13T18:17:20.008Z,13.50
2017-10-13T18:19:47.072Z,13.60
2017-10-13T18:22:13.422Z,13.50
2017-10-13T18:24:39.752Z,13.60
2017-10-13T18:27:06.089Z,13.60
2017-10-13T18:29:32.436Z,13.60
2017-10-13T18:31:59.533Z,13.50
2017-10-13T18:34:26.622Z,13.50
2017-10-13T18:36:52.940Z,13.50
2017-10-13T18:39:19.243Z,13.50
2017-10-13T18:41:46.336Z,13.40
2017-10-13T18:44:12.751Z,13.40
2017-10-13T18:46:39.078Z,13.40
2017-10-13T18:49:05.426Z,13.40
2017-10-13T18:51:32.007Z,13.40
2017-10-13T18:53:58.444Z,13.30
2017-10-13T18:56:24.837Z,13.30
2017-10-13T18:58:51.460Z,13.40
2017-10-13T19:01:17.901Z,13.30
2017-10-13T19:03:44.257Z,13.30
2017-10-13T19:06:10.593Z,13.40
2017-10-13T19:08:37.029Z,13.40
2017-10-13T19:11:03.332Z,13.40
2017-10-13T19:16:30.169Z,13.50
2017-10-13T19:18:57.539Z,13.50
2017-10-13T19:21:23.835Z,13.50
2017-10-13T19:23:51.211Z,13.60
2017-10-13T19:26:17.483Z,13.60
2017-10-13T19:28:43.921Z,13.60
2017-10-13T19:31:10.260Z,13.70
2017-10-13T19:33:36.510Z,13.60
2017-10-13T19:36:02.790Z,13.60
2017-10-13T19:38:34.195Z,13.60
2017-10-13T19:41:01.251Z,13.60
2017-10-13T19:43:29.356Z,13.60
2017-10-13T19:45:55.627Z,13.50
2017-10-13T19:48:21.903Z,13.50
2017-10-13T19:50:48.208Z,13.40
2017-10-13T19:53:16.370Z,13.30
2017-10-13T19:55:42.772Z,13.30
2017-10-13T19:58:09.108Z,13.30
2017-10-13T20:00:35.402Z,13.30
2017-10-13T20:03:01.690Z,13.30
2017-10-13T20:05:28.008Z,13.30
2017-10-13T20:07:54.527Z,13.20
2017-10-13T20:10:20.818Z,13.30
2017-10-13T20:12:47.844Z,13.20
2017-10-13T20:15:23.008Z,13.10
2017-10-13T20:18:01.171Z,13.10
2017-10-13T20:20:33.318Z,13.10
2017-10-13T20:28:59.671Z,13.00
2017-10-13T20:31:26.261Z,13.10
2017-10-13T20:33:53.437Z,13.10
2017-10-13T20:36:20.493Z,13.20
2017-10-13T20:38:47.523Z,13.20
2017-10-13T20:41:13.858Z,13.10
2017-10-13T20:43:40.901Z,13.20
2017-10-13T20:46:07.158Z,13.20
2017-10-13T20:48:33.445Z,13.20
2017-10-13T20:50:59.798Z,13.20
2017-10-13T20:53:33.389Z,13.30
2017-10-13T20:55:59.721Z,13.20
2017-10-13T20:58:26.116Z,13.30
2017-10-13T21:00:52.481Z,13.30
2017-10-13T21:03:18.821Z,13.30
2017-10-13T21:05:45.161Z,13.40
2017-10-13T21:08:12.284Z,13.50
2017-10-13T21:10:38.586Z,13.50
2017-10-13T21:13:04.866Z,13.60
2017-10-13T21:15:31.916Z,13.60
2017-10-13T21:17:58.942Z,13.60
2017-10-13T21:20:25.334Z,13.60
2017-10-13T21:22:51.716Z,13.60
2017-10-13T21:25:18.035Z,13.60
2017-10-13T21:27:44.311Z,13.70
2017-10-13T21:30:10.636Z,13.60
2017-10-13T21:32:37.651Z,13.60
2017-10-13T21:35:03.977Z,13.70
2017-10-13T21:37:30.237Z,13.70
2017-10-13T21:39:57.299Z,13.70
2017-10-13T21:42:23.645Z,13.70
2017-10-13T21:44:49.934Z,13.60
2017-10-13T21:47:16.977Z,13.70
2017-10-13T21:49:43.245Z,13.70
2017-10-13T21:52:09.544Z,13.70
2017-10-13T21:54:36.530Z,13.70
2017-10-13T21:57:02.788Z,13.70
2017-10-13T21:59:29.133Z,13.80
2017-10-13T22:01:55.398Z,13.70
2017-10-13T22:04:23.060Z,13.70
2017-10-13T22:06:49.395Z,13.70
2017-10-13T22:09:16.482Z,13.70
2017-10-13T22:11:42.750Z,13.70
2017-10-13T22:14:16.661Z,13.80
2017-10-13T22:16:43.678Z,13.90
2017-10-13T22:19:09.986Z,13.90
2017-10-13T22:21:36.254Z,13.90
2017-10-13T22:24:02.511Z,14.00
2017-10-13T22:26:29.534Z,14.10
2017-10-13T22:28:55.862Z,14.10
2017-10-13T22:31:22.233Z,14.10
2017-10-13T22:33:48.862Z,14.20
2017-10-13T22:36:15.888Z,14.10
2017-10-13T22:38:42.274Z,14.10
2017-10-13T22:41:08.543Z,14.10
2017-10-13T22:43:34.813Z,14.20
2017-10-13T22:46:01.111Z,14.10
2017-10-13T22:48:27.422Z,14.10
2017-10-13T22:50:53.664Z,14.10
2017-10-13T22:53:19.920Z,14.10
2017-10-13T22:55:46.944Z,14.20
2017-10-13T22:58:13.171Z,14.20
2017-10-13T23:00:39.468Z,14.20
2017-10-13T23:03:05.771Z,14.20
2017-10-13T23:05:32.058Z,14.20
2017-10-13T23:07:58.345Z,14.30
2017-10-13T23:10:24.620Z,14.30
2017-10-13T23:12:50.870Z,14.30
2017-10-13T23:15:17.923Z,14.40
2017-10-13T23:17:44.937Z,14.50
2017-10-13T23:20:11.235Z,14.50
2017-10-13T23:22:37.513Z,14.50
2017-10-13T23:25:03.765Z,14.50
2017-10-13T23:27:30.777Z,14.60
2017-10-13T23:29:57.140Z,14.60
2017-10-13T23:32:24.237Z,14.60
2017-10-13T23:34:50.517Z,14.60
2017-10-13T23:37:17.509Z,14.70
2017-10-13T23:39:43.773Z,14.70
2017-10-13T23:42:10.066Z,14.70
2017-10-13T23:44:36.369Z,14.70
2017-10-13T23:47:02.612Z,14.70
2017-10-13T23:49:28.918Z,14.70
2017-10-13T23:51:55.218Z,14.70
2017-10-13T23:54:21.519Z,14.70
2017-10-13T23:56:47.793Z,14.80
2017-10-13T23:59:14.800Z,14.90
